sensor_id;sensor_type;location;lat;lon;timestamp;temperature;humidity
24686;DHT22;12804;51.176;4.452;2024-02-16T00:01:00;13.30;1.00
24686;DHT22;12804;51.176;4.452;2024-02-16T00:03:27;13.30;1.00
24686;DHT22;12804;51.176;4.452;2024-02-16T00:05:53;13.20;1.00
24686;DHT22;12804;51.176;4.452;2024-02-16T00:08:19;13.20;1.00
24686;DHT22;12804;51.176;4.452;2024-02-16T00:10:46;13.20;1.00
24686;DHT22;12804;51.176;4.452;2024-02-16T00:13:12;13.20;1.00
24686;DHT22;12804;51.176;4.452;2024-02-16T00:15:38;13.20;1.00
24686;DHT22;12804;51.176;4.452;2024-02-16T00:18:07;13.30;1.00
24686;DHT22;12804;51.176;4.452;2024-02-16T00:20:33;13.30;1.00
24686;DHT22;12804;51.176;4.452;2024-02-16T00:22:59;13.30;1.00
24686;DHT22;12804;51.176;4.452;2024-02-16T00:25:28;13.30;1.00
24686;DHT22;12804;51.176;4.452;2024-02-16T00:27:53;13.30;1.00
24686;DHT22;12804;51.176;4.452;2024-02-16T00:30:20;13.30;1.00
24686;DHT22;12804;51.176;4.452;2024-02-16T00:32:45;13.40;1.00
24686;DHT22;12804;51.176;4.452;2024-02-16T00:35:12;13.40;1.00
24686;DHT22;12804;51.176;4.452;2024-02-16T00:37:38;13.40;1.00
24686;DHT22;12804;51.176;4.452;2024-02-16T00:40:04;13.30;1.00
24686;DHT22;12804;51.176;4.452;2024-02-16T00:42:32;13.30;1.00
24686;DHT22;12804;51.176;4.452;2024-02-16T00:44:58;13.30;1.00
24686;DHT22;12804;51.176;4.452;2024-02-16T00:47:26;13.30;1.00
24686;DHT22;12804;51.176;4.452;2024-02-16T00:49:55;13.20;1.00
24686;DHT22;12804;51.176;4.452;2024-02-16T00:52:22;13.20;1.00
24686;DHT22;12804;51.176;4.452;2024-02-16T00:54:49;13.20;1.00
24686;DHT22;12804;51.176;4.452;2024-02-16T00:57:15;13.30;1.00
24686;DHT22;12804;51.176;4.452;2024-02-16T00:59:41;13.30;2.10
24686;DHT22;12804;51.176;4.452;2024-02-16T01:02:07;13.30;1.00
24686;DHT22;12804;51.176;4.452;2024-02-16T01:04:33;13.30;1.00
24686;DHT22;12804;51.176;4.452;2024-02-16T01:06:59;13.30;2.30
24686;DHT22;12804;51.176;4.452;2024-02-16T01:09:25;13.20;11.90
24686;DHT22;12804;51.176;4.452;2024-02-16T01:11:52;13.20;16.20
24686;DHT22;12804;51.176;4.452;2024-02-16T01:14:18;13.20;13.80
24686;DHT22;12804;51.176;4.452;2024-02-16T01:16:45;13.20;11.80
24686;DHT22;12804;51.176;4.452;2024-02-16T01:19:11;13.20;10.60
24686;DHT22;12804;51.176;4.452;2024-02-16T01:21:37;13.20;10.40
24686;DHT22;12804;51.176;4.452;2024-02-16T01:24:03;13.20;10.00
24686;DHT22;12804;51.176;4.452;2024-02-16T01:26:29;13.10;1.00
24686;DHT22;12804;51.176;4.452;2024-02-16T01:28:55;13.00;13.10
24686;DHT22;12804;51.176;4.452;2024-02-16T01:31:21;13.00;21.60
24686;DHT22;12804;51.176;4.452;2024-02-16T01:33:47;13.00;26.00
24686;DHT22;12804;51.176;4.452;2024-02-16T01:36:12;13.00;16.20
24686;DHT22;12804;51.176;4.452;2024-02-16T01:38:38;13.00;15.90
24686;DHT22;12804;51.176;4.452;2024-02-16T01:41:04;13.00;19.00
24686;DHT22;12804;51.176;4.452;2024-02-16T01:43:30;13.10;22.00
24686;DHT22;12804;51.176;4.452;2024-02-16T01:45:56;13.20;22.60
24686;DHT22;12804;51.176;4.452;2024-02-16T01:48:24;13.00;19.60
24686;DHT22;12804;51.176;4.452;2024-02-16T01:50:52;13.10;22.30
24686;DHT22;12804;51.176;4.452;2024-02-16T01:53:19;13.10;15.70
24686;DHT22;12804;51.176;4.452;2024-02-16T01:55:48;13.10;18.10
24686;DHT22;12804;51.176;4.452;2024-02-16T01:58:15;13.10;20.10
24686;DHT22;12804;51.176;4.452;2024-02-16T02:00:41;13.10;18.20
24686;DHT22;12804;51.176;4.452;2024-02-16T02:03:07;13.00;15.00
24686;DHT22;12804;51.176;4.452;2024-02-16T02:05:33;13.00;16.90
24686;DHT22;12804;51.176;4.452;2024-02-16T02:07:59;13.00;20.20
24686;DHT22;12804;51.176;4.452;2024-02-16T02:10:24;13.00;19.50
24686;DHT22;12804;51.176;4.452;2024-02-16T02:12:50;13.10;19.40
24686;DHT22;12804;51.176;4.452;2024-02-16T02:15:16;13.10;23.60
24686;DHT22;12804;51.176;4.452;2024-02-16T02:17:42;13.20;26.60
24686;DHT22;12804;51.176;4.452;2024-02-16T02:20:08;13.20;24.70
24686;DHT22;12804;51.176;4.452;2024-02-16T02:22:39;13.20;24.70
24686;DHT22;12804;51.176;4.452;2024-02-16T02:25:05;13.20;27.30
24686;DHT22;12804;51.176;4.452;2024-02-16T02:27:31;13.20;30.90
24686;DHT22;12804;51.176;4.452;2024-02-16T02:29:57;13.20;34.60
24686;DHT22;12804;51.176;4.452;2024-02-16T02:32:24;13.20;35.30
24686;DHT22;12804;51.176;4.452;2024-02-16T02:34:50;13.20;35.00
24686;DHT22;12804;51.176;4.452;2024-02-16T02:37:15;13.10;37.80
24686;DHT22;12804;51.176;4.452;2024-02-16T02:39:41;13.00;43.00
24686;DHT22;12804;51.176;4.452;2024-02-16T02:42:07;12.90;48.10
24686;DHT22;12804;51.176;4.452;2024-02-16T02:44:33;12.80;55.00
24686;DHT22;12804;51.176;4.452;2024-02-16T02:46:59;12.80;59.70
24686;DHT22;12804;51.176;4.452;2024-02-16T02:49:25;12.80;65.40
24686;DHT22;12804;51.176;4.452;2024-02-16T02:51:51;12.70;75.40
24686;DHT22;12804;51.176;4.452;2024-02-16T02:54:17;12.70;76.90
24686;DHT22;12804;51.176;4.452;2024-02-16T02:56:43;12.70;84.20
24686;DHT22;12804;51.176;4.452;2024-02-16T02:59:09;12.60;84.80
24686;DHT22;12804;51.176;4.452;2024-02-16T03:01:36;12.60;85.50
24686;DHT22;12804;51.176;4.452;2024-02-16T03:04:03;12.60;87.90
24686;DHT22;12804;51.176;4.452;2024-02-16T03:06:29;12.60;90.80
24686;DHT22;12804;51.176;4.452;2024-02-16T03:08:54;12.60;90.80
24686;DHT22;12804;51.176;4.452;2024-02-16T03:11:20;12.60;90.60
24686;DHT22;12804;51.176;4.452;2024-02-16T03:13:46;12.50;93.10
24686;DHT22;12804;51.176;4.452;2024-02-16T03:16:12;12.50;95.60
24686;DHT22;12804;51.176;4.452;2024-02-16T03:18:38;12.40;98.50
24686;DHT22;12804;51.176;4.452;2024-02-16T03:21:04;12.40;98.60
24686;DHT22;12804;51.176;4.452;2024-02-16T03:23:30;12.40;97.00
24686;DHT22;12804;51.176;4.452;2024-02-16T03:25:56;12.40;99.00
24686;DHT22;12804;51.176;4.452;2024-02-16T03:28:22;12.30;99.90
24686;DHT22;12804;51.176;4.452;2024-02-16T03:30:48;12.30;99.90
24686;DHT22;12804;51.176;4.452;2024-02-16T03:33:14;12.30;99.90
24686;DHT22;12804;51.176;4.452;2024-02-16T03:35:40;12.40;99.90
24686;DHT22;12804;51.176;4.452;2024-02-16T03:38:06;12.30;99.90
24686;DHT22;12804;51.176;4.452;2024-02-16T03:40:32;12.30;99.90
24686;DHT22;12804;51.176;4.452;2024-02-16T03:42:58;12.20;99.90
24686;DHT22;12804;51.176;4.452;2024-02-16T03:45:24;12.30;99.90
24686;DHT22;12804;51.176;4.452;2024-02-16T03:47:52;12.20;99.90
24686;DHT22;12804;51.176;4.452;2024-02-16T03:50:21;12.20;99.90
24686;DHT22;12804;51.176;4.452;2024-02-16T03:52:51;12.20;99.90
24686;DHT22;12804;51.176;4.452;2024-02-16T03:55:17;12.20;99.90
24686;DHT22;12804;51.176;4.452;2024-02-16T03:57:43;12.30;99.90
24686;DHT22;12804;51.176;4.452;2024-02-16T04:00:09;12.20;99.90
24686;DHT22;12804;51.176;4.452;2024-02-16T04:02:39;12.20;99.90
24686;DHT22;12804;51.176;4.452;2024-02-16T04:05:05;12.30;99.90
24686;DHT22;12804;51.176;4.452;2024-02-16T04:07:31;12.30;99.90
24686;DHT22;12804;51.176;4.452;2024-02-16T04:09:57;12.30;99.90
24686;DHT22;12804;51.176;4.452;2024-02-16T04:12:23;12.30;99.90
24686;DHT22;12804;51.176;4.452;2024-02-16T04:14:48;12.40;99.90
24686;DHT22;12804;51.176;4.452;2024-02-16T04:17:14;12.40;99.90
24686;DHT22;12804;51.176;4.452;2024-02-16T04:19:40;12.40;99.90
24686;DHT22;12804;51.176;4.452;2024-02-16T04:22:06;12.50;98.10
24686;DHT22;12804;51.176;4.452;2024-02-16T04:24:32;12.60;95.20
24686;DHT22;12804;51.176;4.452;2024-02-16T04:26:58;12.70;92.50
24686;DHT22;12804;51.176;4.452;2024-02-16T04:29:24;12.80;91.00
24686;DHT22;12804;51.176;4.452;2024-02-16T04:31:50;12.90;87.90
24686;DHT22;12804;51.176;4.452;2024-02-16T04:34:16;13.00;81.90
24686;DHT22;12804;51.176;4.452;2024-02-16T04:36:42;13.10;76.10
24686;DHT22;12804;51.176;4.452;2024-02-16T04:39:09;13.20;71.10
24686;DHT22;12804;51.176;4.452;2024-02-16T04:41:36;13.20;69.40
24686;DHT22;12804;51.176;4.452;2024-02-16T04:44:02;13.30;63.10
24686;DHT22;12804;51.176;4.452;2024-02-16T04:46:28;13.30;64.00
24686;DHT22;12804;51.176;4.452;2024-02-16T04:48:54;13.30;67.10
24686;DHT22;12804;51.176;4.452;2024-02-16T04:51:20;13.30;67.80
24686;DHT22;12804;51.176;4.452;2024-02-16T04:53:45;13.40;64.80
24686;DHT22;12804;51.176;4.452;2024-02-16T04:56:11;13.30;66.80
24686;DHT22;12804;51.176;4.452;2024-02-16T04:58:41;13.40;67.00
24686;DHT22;12804;51.176;4.452;2024-02-16T05:01:07;13.40;65.70
24686;DHT22;12804;51.176;4.452;2024-02-16T05:03:33;13.40;70.00
24686;DHT22;12804;51.176;4.452;2024-02-16T05:06:00;13.40;72.50
24686;DHT22;12804;51.176;4.452;2024-02-16T05:08:26;13.40;70.90
24686;DHT22;12804;51.176;4.452;2024-02-16T05:10:51;13.40;70.20
24686;DHT22;12804;51.176;4.452;2024-02-16T05:13:17;13.40;71.20
24686;DHT22;12804;51.176;4.452;2024-02-16T05:15:43;13.50;72.30
24686;DHT22;12804;51.176;4.452;2024-02-16T05:18:09;13.50;73.60
24686;DHT22;12804;51.176;4.452;2024-02-16T05:20:38;13.40;78.40
24686;DHT22;12804;51.176;4.452;2024-02-16T05:23:04;13.50;78.50
24686;DHT22;12804;51.176;4.452;2024-02-16T05:25:29;13.50;78.20
24686;DHT22;12804;51.176;4.452;2024-02-16T05:27:55;13.50;78.70
24686;DHT22;12804;51.176;4.452;2024-02-16T05:30:21;13.60;76.20
24686;DHT22;12804;51.176;4.452;2024-02-16T05:32:47;13.60;75.50
24686;DHT22;12804;51.176;4.452;2024-02-16T05:35:14;13.60;78.30
24686;DHT22;12804;51.176;4.452;2024-02-16T05:37:41;13.60;76.90
24686;DHT22;12804;51.176;4.452;2024-02-16T05:40:10;13.60;79.20
24686;DHT22;12804;51.176;4.452;2024-02-16T05:42:51;13.60;77.70
24686;DHT22;12804;51.176;4.452;2024-02-16T05:45:18;13.70;77.60
24686;DHT22;12804;51.176;4.452;2024-02-16T05:47:47;13.70;77.70
24686;DHT22;12804;51.176;4.452;2024-02-16T05:50:13;13.70;75.70
24686;DHT22;12804;51.176;4.452;2024-02-16T05:52:40;13.70;76.80
24686;DHT22;12804;51.176;4.452;2024-02-16T05:55:07;13.70;78.10
24686;DHT22;12804;51.176;4.452;2024-02-16T05:57:34;13.70;79.20
24686;DHT22;12804;51.176;4.452;2024-02-16T06:00:01;13.70;80.60
24686;DHT22;12804;51.176;4.452;2024-02-16T06:02:31;13.70;83.70
24686;DHT22;12804;51.176;4.452;2024-02-16T06:04:57;13.70;83.90
24686;DHT22;12804;51.176;4.452;2024-02-16T06:07:23;13.70;87.70
24686;DHT22;12804;51.176;4.452;2024-02-16T06:09:49;13.70;87.20
24686;DHT22;12804;51.176;4.452;2024-02-16T06:12:15;13.70;90.30
24686;DHT22;12804;51.176;4.452;2024-02-16T06:14:42;13.70;89.70
24686;DHT22;12804;51.176;4.452;2024-02-16T06:17:08;13.70;91.00
24686;DHT22;12804;51.176;4.452;2024-02-16T06:19:37;13.70;90.30
24686;DHT22;12804;51.176;4.452;2024-02-16T06:22:03;13.60;92.20
24686;DHT22;12804;51.176;4.452;2024-02-16T06:24:30;13.70;92.20
24686;DHT22;12804;51.176;4.452;2024-02-16T06:26:55;13.70;91.10
24686;DHT22;12804;51.176;4.452;2024-02-16T06:29:21;13.80;88.40
24686;DHT22;12804;51.176;4.452;2024-02-16T06:31:47;13.80;90.40
24686;DHT22;12804;51.176;4.452;2024-02-16T06:34:16;13.70;90.90
24686;DHT22;12804;51.176;4.452;2024-02-16T06:36:42;13.70;92.30
24686;DHT22;12804;51.176;4.452;2024-02-16T06:39:08;13.70;92.70
24686;DHT22;12804;51.176;4.452;2024-02-16T06:41:39;13.80;92.30
24686;DHT22;12804;51.176;4.452;2024-02-16T06:44:05;13.80;91.30
24686;DHT22;12804;51.176;4.452;2024-02-16T06:46:31;13.90;91.30
24686;DHT22;12804;51.176;4.452;2024-02-16T06:48:57;13.80;92.00
24686;DHT22;12804;51.176;4.452;2024-02-16T06:51:24;13.80;92.00
24686;DHT22;12804;51.176;4.452;2024-02-16T06:53:50;13.80;92.80
24686;DHT22;12804;51.176;4.452;2024-02-16T06:56:17;13.80;93.40
24686;DHT22;12804;51.176;4.452;2024-02-16T06:58:47;13.90;92.80
24686;DHT22;12804;51.176;4.452;2024-02-16T07:01:13;13.80;92.80
24686;DHT22;12804;51.176;4.452;2024-02-16T07:03:40;13.90;93.40
24686;DHT22;12804;51.176;4.452;2024-02-16T07:06:06;13.90;92.40
24686;DHT22;12804;51.176;4.452;2024-02-16T07:08:44;14.00;92.50
24686;DHT22;12804;51.176;4.452;2024-02-16T07:11:10;13.90;92.30
24686;DHT22;12804;51.176;4.452;2024-02-16T07:13:42;13.90;95.90
24686;DHT22;12804;51.176;4.452;2024-02-16T07:16:08;13.90;97.60
24686;DHT22;12804;51.176;4.452;2024-02-16T07:18:37;13.90;96.90
24686;DHT22;12804;51.176;4.452;2024-02-16T07:21:03;13.90;96.60
24686;DHT22;12804;51.176;4.452;2024-02-16T07:23:29;13.90;97.70
24686;DHT22;12804;51.176;4.452;2024-02-16T07:25:55;13.90;98.40
24686;DHT22;12804;51.176;4.452;2024-02-16T07:28:22;13.90;99.90
24686;DHT22;12804;51.176;4.452;2024-02-16T07:30:49;13.90;99.90
24686;DHT22;12804;51.176;4.452;2024-02-16T07:33:15;13.80;99.90
24686;DHT22;12804;51.176;4.452;2024-02-16T07:35:41;13.80;99.90
24686;DHT22;12804;51.176;4.452;2024-02-16T07:38:07;13.80;99.90
24686;DHT22;12804;51.176;4.452;2024-02-16T07:40:33;13.90;99.90
24686;DHT22;12804;51.176;4.452;2024-02-16T07:42:59;13.90;99.90
24686;DHT22;12804;51.176;4.452;2024-02-16T07:45:25;13.80;99.90
24686;DHT22;12804;51.176;4.452;2024-02-16T07:47:51;13.80;99.90
24686;DHT22;12804;51.176;4.452;2024-02-16T07:50:21;13.80;99.90
24686;DHT22;12804;51.176;4.452;2024-02-16T07:52:48;13.70;99.90
24686;DHT22;12804;51.176;4.452;2024-02-16T07:55:14;13.70;99.90
24686;DHT22;12804;51.176;4.452;2024-02-16T07:57:40;13.70;99.90
24686;DHT22;12804;51.176;4.452;2024-02-16T08:00:07;13.70;99.90
24686;DHT22;12804;51.176;4.452;2024-02-16T08:02:32;13.70;99.90
24686;DHT22;12804;51.176;4.452;2024-02-16T08:04:59;13.70;99.90
24686;DHT22;12804;51.176;4.452;2024-02-16T08:07:25;13.60;99.90
24686;DHT22;12804;51.176;4.452;2024-02-16T08:09:50;13.60;99.90
24686;DHT22;12804;51.176;4.452;2024-02-16T08:12:16;13.60;99.90
24686;DHT22;12804;51.176;4.452;2024-02-16T08:14:42;13.70;99.90
24686;DHT22;12804;51.176;4.452;2024-02-16T08:17:09;13.70;99.90
24686;DHT22;12804;51.176;4.452;2024-02-16T08:19:36;13.80;99.90
24686;DHT22;12804;51.176;4.452;2024-02-16T08:22:06;13.80;99.90
24686;DHT22;12804;51.176;4.452;2024-02-16T08:24:36;13.90;99.90
24686;DHT22;12804;51.176;4.452;2024-02-16T08:27:03;13.90;99.90
24686;DHT22;12804;51.176;4.452;2024-02-16T08:29:30;13.90;99.90
24686;DHT22;12804;51.176;4.452;2024-02-16T08:31:56;13.90;99.90
24686;DHT22;12804;51.176;4.452;2024-02-16T08:34:22;14.00;99.90
24686;DHT22;12804;51.176;4.452;2024-02-16T08:36:49;14.10;99.90
24686;DHT22;12804;51.176;4.452;2024-02-16T08:39:16;14.10;99.90
24686;DHT22;12804;51.176;4.452;2024-02-16T08:41:42;14.10;99.90
24686;DHT22;12804;51.176;4.452;2024-02-16T08:44:10;14.10;99.90
24686;DHT22;12804;51.176;4.452;2024-02-16T08:46:36;14.10;99.90
24686;DHT22;12804;51.176;4.452;2024-02-16T08:49:02;14.20;99.90
24686;DHT22;12804;51.176;4.452;2024-02-16T08:51:28;14.20;99.90
24686;DHT22;12804;51.176;4.452;2024-02-16T08:53:55;14.20;99.90
24686;DHT22;12804;51.176;4.452;2024-02-16T08:56:20;14.20;99.90
24686;DHT22;12804;51.176;4.452;2024-02-16T08:58:46;14.20;99.90
24686;DHT22;12804;51.176;4.452;2024-02-16T09:01:15;14.40;99.90
24686;DHT22;12804;51.176;4.452;2024-02-16T09:03:42;14.30;99.90
24686;DHT22;12804;51.176;4.452;2024-02-16T09:06:08;14.30;99.90
24686;DHT22;12804;51.176;4.452;2024-02-16T09:08:34;14.20;99.90
24686;DHT22;12804;51.176;4.452;2024-02-16T09:11:04;14.20;99.90
24686;DHT22;12804;51.176;4.452;2024-02-16T09:13:39;14.30;99.90
24686;DHT22;12804;51.176;4.452;2024-02-16T09:16:06;14.30;99.90
24686;DHT22;12804;51.176;4.452;2024-02-16T09:18:33;14.30;99.90
24686;DHT22;12804;51.176;4.452;2024-02-16T09:20:59;14.40;99.90
24686;DHT22;12804;51.176;4.452;2024-02-16T09:23:26;14.40;99.90
24686;DHT22;12804;51.176;4.452;2024-02-16T09:25:52;14.40;99.90
24686;DHT22;12804;51.176;4.452;2024-02-16T09:28:18;14.40;99.90
24686;DHT22;12804;51.176;4.452;2024-02-16T09:30:45;14.40;99.90
24686;DHT22;12804;51.176;4.452;2024-02-16T09:33:10;14.50;99.90
24686;DHT22;12804;51.176;4.452;2024-02-16T09:35:36;14.40;99.90
24686;DHT22;12804;51.176;4.452;2024-02-16T09:38:02;14.30;99.90
24686;DHT22;12804;51.176;4.452;2024-02-16T09:40:28;14.30;99.90
24686;DHT22;12804;51.176;4.452;2024-02-16T09:42:54;14.40;99.90
24686;DHT22;12804;51.176;4.452;2024-02-16T09:45:20;14.30;99.90
24686;DHT22;12804;51.176;4.452;2024-02-16T09:47:47;14.40;99.90
24686;DHT22;12804;51.176;4.452;2024-02-16T09:50:16;14.40;99.90
24686;DHT22;12804;51.176;4.452;2024-02-16T09:52:47;14.60;99.90
24686;DHT22;12804;51.176;4.452;2024-02-16T09:55:14;14.70;99.90
24686;DHT22;12804;51.176;4.452;2024-02-16T09:57:40;14.70;99.90
24686;DHT22;12804;51.176;4.452;2024-02-16T10:00:06;14.70;99.90
24686;DHT22;12804;51.176;4.452;2024-02-16T10:02:44;14.90;99.90
24686;DHT22;12804;51.176;4.452;2024-02-16T10:05:15;14.80;99.90
24686;DHT22;12804;51.176;4.452;2024-02-16T10:07:42;14.50;99.90
24686;DHT22;12804;51.176;4.452;2024-02-16T10:10:27;14.40;99.90
24686;DHT22;12804;51.176;4.452;2024-02-16T10:13:07;14.40;99.90
24686;DHT22;12804;51.176;4.452;2024-02-16T10:15:34;14.40;99.90
24686;DHT22;12804;51.176;4.452;2024-02-16T10:18:02;14.40;99.90
24686;DHT22;12804;51.176;4.452;2024-02-16T10:20:28;14.40;99.90
24686;DHT22;12804;51.176;4.452;2024-02-16T10:23:07;14.50;99.90
24686;DHT22;12804;51.176;4.452;2024-02-16T10:25:38;14.30;99.90
24686;DHT22;12804;51.176;4.452;2024-02-16T10:28:08;14.20;99.90
24686;DHT22;12804;51.176;4.452;2024-02-16T10:30:38;14.10;99.90
24686;DHT22;12804;51.176;4.452;2024-02-16T10:33:05;14.20;99.90
24686;DHT22;12804;51.176;4.452;2024-02-16T10:35:36;14.10;99.90
24686;DHT22;12804;51.176;4.452;2024-02-16T10:38:04;14.10;99.90
24686;DHT22;12804;51.176;4.452;2024-02-16T10:40:38;14.00;99.90
24686;DHT22;12804;51.176;4.452;2024-02-16T10:43:05;13.90;99.90
24686;DHT22;12804;51.176;4.452;2024-02-16T10:45:35;13.90;99.90
24686;DHT22;12804;51.176;4.452;2024-02-16T10:48:02;13.70;99.90
24686;DHT22;12804;51.176;4.452;2024-02-16T10:50:29;13.70;99.90
24686;DHT22;12804;51.176;4.452;2024-02-16T10:52:57;13.80;99.90
24686;DHT22;12804;51.176;4.452;2024-02-16T10:55:24;13.90;99.90
24686;DHT22;12804;51.176;4.452;2024-02-16T10:57:50;13.80;99.90
24686;DHT22;12804;51.176;4.452;2024-02-16T11:00:19;13.80;99.90
24686;DHT22;12804;51.176;4.452;2024-02-16T11:02:55;13.70;99.90
24686;DHT22;12804;51.176;4.452;2024-02-16T11:05:34;13.60;99.90
24686;DHT22;12804;51.176;4.452;2024-02-16T11:08:04;13.70;99.90
24686;DHT22;12804;51.176;4.452;2024-02-16T11:10:33;13.70;99.90
24686;DHT22;12804;51.176;4.452;2024-02-16T11:13:03;13.70;99.90
24686;DHT22;12804;51.176;4.452;2024-02-16T11:15:34;13.70;99.90
24686;DHT22;12804;51.176;4.452;2024-02-16T11:18:04;13.60;99.90
24686;DHT22;12804;51.176;4.452;2024-02-16T11:20:37;13.60;99.90
24686;DHT22;12804;51.176;4.452;2024-02-16T11:23:09;13.60;99.90
24686;DHT22;12804;51.176;4.452;2024-02-16T11:25:36;13.60;99.90
24686;DHT22;12804;51.176;4.452;2024-02-16T11:28:02;13.60;99.90
24686;DHT22;12804;51.176;4.452;2024-02-16T11:30:32;13.60;99.90
24686;DHT22;12804;51.176;4.452;2024-02-16T11:33:00;13.50;99.90
24686;DHT22;12804;51.176;4.452;2024-02-16T11:35:25;13.50;99.90
24686;DHT22;12804;51.176;4.452;2024-02-16T11:37:51;13.40;99.90
24686;DHT22;12804;51.176;4.452;2024-02-16T11:40:17;13.40;99.90
24686;DHT22;12804;51.176;4.452;2024-02-16T11:42:44;13.40;99.90
24686;DHT22;12804;51.176;4.452;2024-02-16T11:45:12;13.40;99.90
24686;DHT22;12804;51.176;4.452;2024-02-16T11:47:38;13.40;99.90
24686;DHT22;12804;51.176;4.452;2024-02-16T11:50:09;13.40;99.90
24686;DHT22;12804;51.176;4.452;2024-02-16T11:52:38;13.50;99.90
24686;DHT22;12804;51.176;4.452;2024-02-16T11:55:08;13.60;99.90
24686;DHT22;12804;51.176;4.452;2024-02-16T11:57:35;13.50;99.90
24686;DHT22;12804;51.176;4.452;2024-02-16T12:00:04;13.40;99.90
24686;DHT22;12804;51.176;4.452;2024-02-16T12:02:35;13.40;99.90
24686;DHT22;12804;51.176;4.452;2024-02-16T12:05:02;13.50;99.90
24686;DHT22;12804;51.176;4.452;2024-02-16T12:07:28;13.50;99.90
24686;DHT22;12804;51.176;4.452;2024-02-16T12:10:05;13.50;99.90
24686;DHT22;12804;51.176;4.452;2024-02-16T12:12:32;13.50;99.90
24686;DHT22;12804;51.176;4.452;2024-02-16T12:14:58;13.60;99.90
24686;DHT22;12804;51.176;4.452;2024-02-16T12:17:24;13.50;99.90
24686;DHT22;12804;51.176;4.452;2024-02-16T12:19:51;13.40;99.90
24686;DHT22;12804;51.176;4.452;2024-02-16T12:22:19;13.40;99.90
24686;DHT22;12804;51.176;4.452;2024-02-16T12:24:46;13.30;99.90
24686;DHT22;12804;51.176;4.452;2024-02-16T12:27:12;13.30;99.90
24686;DHT22;12804;51.176;4.452;2024-02-16T12:29:38;13.20;99.90
24686;DHT22;12804;51.176;4.452;2024-02-16T12:32:05;13.10;99.90
24686;DHT22;12804;51.176;4.452;2024-02-16T12:34:31;13.10;99.90
24686;DHT22;12804;51.176;4.452;2024-02-16T12:36:56;13.10;99.90
24686;DHT22;12804;51.176;4.452;2024-02-16T12:39:22;13.10;99.90
24686;DHT22;12804;51.176;4.452;2024-02-16T12:41:48;13.00;99.90
24686;DHT22;12804;51.176;4.452;2024-02-16T12:44:15;13.00;99.90
24686;DHT22;12804;51.176;4.452;2024-02-16T12:46:41;13.10;99.90
24686;DHT22;12804;51.176;4.452;2024-02-16T12:49:09;13.10;99.90
24686;DHT22;12804;51.176;4.452;2024-02-16T12:51:35;13.20;99.90
24686;DHT22;12804;51.176;4.452;2024-02-16T12:54:01;13.40;99.90
24686;DHT22;12804;51.176;4.452;2024-02-16T12:56:29;13.40;99.90
24686;DHT22;12804;51.176;4.452;2024-02-16T12:58:55;13.40;99.90
24686;DHT22;12804;51.176;4.452;2024-02-16T13:01:22;13.50;99.90
24686;DHT22;12804;51.176;4.452;2024-02-16T13:03:48;13.60;99.90
24686;DHT22;12804;51.176;4.452;2024-02-16T13:06:14;13.40;99.90
24686;DHT22;12804;51.176;4.452;2024-02-16T13:08:40;13.40;99.90
24686;DHT22;12804;51.176;4.452;2024-02-16T13:11:06;13.70;99.90
24686;DHT22;12804;51.176;4.452;2024-02-16T13:13:32;13.60;99.90
24686;DHT22;12804;51.176;4.452;2024-02-16T13:15:58;13.60;99.90
24686;DHT22;12804;51.176;4.452;2024-02-16T13:18:25;13.70;99.90
24686;DHT22;12804;51.176;4.452;2024-02-16T13:20:51;13.70;99.90
24686;DHT22;12804;51.176;4.452;2024-02-16T13:23:17;13.90;99.90
24686;DHT22;12804;51.176;4.452;2024-02-16T13:25:42;14.00;99.90
24686;DHT22;12804;51.176;4.452;2024-02-16T13:28:08;14.00;99.90
24686;DHT22;12804;51.176;4.452;2024-02-16T13:30:34;14.20;99.90
24686;DHT22;12804;51.176;4.452;2024-02-16T13:33:00;14.30;99.90
24686;DHT22;12804;51.176;4.452;2024-02-16T13:35:26;14.40;99.90
24686;DHT22;12804;51.176;4.452;2024-02-16T13:37:52;14.60;99.90
24686;DHT22;12804;51.176;4.452;2024-02-16T13:40:17;14.80;99.90
24686;DHT22;12804;51.176;4.452;2024-02-16T13:42:44;14.90;99.90
24686;DHT22;12804;51.176;4.452;2024-02-16T13:45:11;15.00;99.90
24686;DHT22;12804;51.176;4.452;2024-02-16T13:47:37;14.80;99.90
24686;DHT22;12804;51.176;4.452;2024-02-16T13:50:06;15.00;99.90
24686;DHT22;12804;51.176;4.452;2024-02-16T13:52:32;14.90;99.90
24686;DHT22;12804;51.176;4.452;2024-02-16T13:54:59;14.90;99.90
24686;DHT22;12804;51.176;4.452;2024-02-16T13:57:25;15.20;99.90
24686;DHT22;12804;51.176;4.452;2024-02-16T13:59:51;15.20;99.90
24686;DHT22;12804;51.176;4.452;2024-02-16T14:02:17;15.10;99.90
24686;DHT22;12804;51.176;4.452;2024-02-16T14:04:44;15.20;99.90
24686;DHT22;12804;51.176;4.452;2024-02-16T14:07:10;15.30;99.90
24686;DHT22;12804;51.176;4.452;2024-02-16T14:09:36;15.10;99.90
24686;DHT22;12804;51.176;4.452;2024-02-16T14:12:01;15.00;99.90
24686;DHT22;12804;51.176;4.452;2024-02-16T14:14:27;15.00;99.90
24686;DHT22;12804;51.176;4.452;2024-02-16T14:16:54;15.00;99.90
24686;DHT22;12804;51.176;4.452;2024-02-16T14:19:19;15.10;99.90
24686;DHT22;12804;51.176;4.452;2024-02-16T14:21:45;15.10;99.90
24686;DHT22;12804;51.176;4.452;2024-02-16T14:24:15;15.20;99.90
24686;DHT22;12804;51.176;4.452;2024-02-16T14:26:44;15.10;99.90
24686;DHT22;12804;51.176;4.452;2024-02-16T14:29:10;15.30;99.90
24686;DHT22;12804;51.176;4.452;2024-02-16T14:31:36;15.50;99.90
24686;DHT22;12804;51.176;4.452;2024-02-16T14:34:02;15.60;99.90
24686;DHT22;12804;51.176;4.452;2024-02-16T14:36:28;15.50;99.90
24686;DHT22;12804;51.176;4.452;2024-02-16T14:38:54;15.50;99.90
24686;DHT22;12804;51.176;4.452;2024-02-16T14:41:19;15.50;99.90
24686;DHT22;12804;51.176;4.452;2024-02-16T14:43:46;15.30;99.90
24686;DHT22;12804;51.176;4.452;2024-02-16T14:46:12;15.20;99.90
24686;DHT22;12804;51.176;4.452;2024-02-16T14:48:39;15.10;99.90
24686;DHT22;12804;51.176;4.452;2024-02-16T14:51:05;15.10;99.90
24686;DHT22;12804;51.176;4.452;2024-02-16T14:53:31;15.20;99.90
24686;DHT22;12804;51.176;4.452;2024-02-16T14:55:59;15.50;99.90
24686;DHT22;12804;51.176;4.452;2024-02-16T14:58:25;15.60;99.90
24686;DHT22;12804;51.176;4.452;2024-02-16T15:00:51;15.60;99.90
24686;DHT22;12804;51.176;4.452;2024-02-16T15:03:17;15.60;99.90
24686;DHT22;12804;51.176;4.452;2024-02-16T15:05:45;15.60;99.90
24686;DHT22;12804;51.176;4.452;2024-02-16T15:08:11;15.30;99.90
24686;DHT22;12804;51.176;4.452;2024-02-16T15:10:37;15.10;99.90
24686;DHT22;12804;51.176;4.452;2024-02-16T15:13:03;14.90;99.90
24686;DHT22;12804;51.176;4.452;2024-02-16T15:15:29;15.00;99.90
24686;DHT22;12804;51.176;4.452;2024-02-16T15:17:55;15.00;99.90
24686;DHT22;12804;51.176;4.452;2024-02-16T15:20:21;14.90;99.90
24686;DHT22;12804;51.176;4.452;2024-02-16T15:22:49;14.80;99.90
24686;DHT22;12804;51.176;4.452;2024-02-16T15:25:15;14.80;99.90
24686;DHT22;12804;51.176;4.452;2024-02-16T15:27:41;14.90;99.90
24686;DHT22;12804;51.176;4.452;2024-02-16T15:30:07;15.00;99.90